ADDS - METARS form results

Aviation Digital Data Service (ADDS)

Output produced by METARs form (0606 UTC 25 January 2020)
found at http://aviationweather.gov/metar/data/
 
METAR text: KC09 250555Z AUTO 23004KT 1 1/4SM -SN OVC003 00/00 A2979 RMK AO2 P0002 60002 T00000000 10015 20000 400270000
Conditions at: KC09 (MORRIS-WASHBURN , IL, US) observed 0555 UTC 25 January 2020
Temperature: 0.0°C (32°F)
Dewpoint: 0.0°C (32°F) [RH = 100%]
Pressure (altimeter): 29.79 inches Hg (1008.9 mb)
Winds: from the SW (230 degrees) at 5 MPH (4 knots; 2.1 m/s)
Visibility: 1.25 miles (2.01 km)
Ceiling: 300 feet AGL
Clouds: overcast cloud deck at 300 feet AGL
Weather: -SN  (light snow)

METAR text: KC09 250535Z AUTO 22004KT 1 1/4SM -SN OVC003 00/00 A2980 RMK AO2 P0001 T00010000
Conditions at: KC09 (MORRIS-WASHBURN , IL, US) observed 0535 UTC 25 January 2020
Temperature: 0.1°C (32°F)
Dewpoint: 0.0°C (32°F) [RH = 99%]
Pressure (altimeter): 29.80 inches Hg (1009.2 mb)
Winds: from the SW (220 degrees) at 5 MPH (4 knots; 2.1 m/s)
Visibility: 1.25 miles (2.01 km)
Ceiling: 300 feet AGL
Clouds: overcast cloud deck at 300 feet AGL
Weather: -SN  (light snow)

METAR text: KC09 250515Z AUTO 23005KT 1 1/4SM -SN OVC003 00/00 A2980 RMK AO2 P0001 T00020000
Conditions at: KC09 (MORRIS-WASHBURN , IL, US) observed 0515 UTC 25 January 2020
Temperature: 0.2°C (32°F)
Dewpoint: 0.0°C (32°F) [RH = 99%]
Pressure (altimeter): 29.80 inches Hg (1009.2 mb)
Winds: from the SW (230 degrees) at 6 MPH (5 knots; 2.6 m/s)
Visibility: 1.25 miles (2.01 km)
Ceiling: 300 feet AGL
Clouds: overcast cloud deck at 300 feet AGL
Weather: -SN  (light snow)